createdAt,value
2018-11-03T00:01:34.395Z,101914.00
2018-11-03T00:04:03.668Z,101905.00
2018-11-03T00:06:33.852Z,101912.00
2018-11-03T00:09:03.061Z,101917.00
2018-11-03T00:11:32.222Z,101916.00
2018-11-03T00:14:01.319Z,101918.00
2018-11-03T00:21:32.118Z,101921.00
2018-11-03T00:24:06.135Z,101928.00
2018-11-03T00:26:35.455Z,101929.00
2018-11-03T00:29:05.180Z,101923.00
2018-11-03T00:31:34.612Z,101924.00
2018-11-03T00:34:07.382Z,101928.00
2018-11-03T00:36:36.544Z,101936.00
2018-11-03T00:47:19.489Z,101958.00
2018-11-03T00:49:48.549Z,101953.00
2018-11-03T00:52:17.740Z,101951.00
2018-11-03T00:57:32.983Z,101955.00
2018-11-03T01:05:43.086Z,101967.00
2018-11-03T01:08:12.181Z,101972.00
2018-11-03T01:14:07.147Z,101975.00
2018-11-03T01:16:37.667Z,101974.00
2018-11-03T01:19:06.951Z,101975.00
2018-11-03T01:21:36.017Z,101983.00
2018-11-03T01:25:14.767Z,101983.00
2018-11-03T01:27:45.049Z,101974.00
2018-11-03T01:30:15.983Z,101981.00
2018-11-03T01:32:45.209Z,101981.00
2018-11-03T01:35:14.266Z,101989.00
2018-11-03T01:37:48.291Z,101996.00
2018-11-03T01:40:18.179Z,101990.00
2018-11-03T01:42:47.403Z,101986.00
2018-11-03T01:45:18.554Z,101989.00
2018-11-03T01:47:47.699Z,101998.00
2018-11-03T01:50:17.108Z,102000.00
2018-11-03T01:52:46.467Z,101990.00
2018-11-03T01:55:15.627Z,101989.00
2018-11-03T01:57:44.723Z,101993.00
2018-11-03T02:00:19.878Z,101993.00
2018-11-03T02:10:49.423Z,101986.00
2018-11-03T02:13:18.548Z,101987.00
2018-11-03T02:15:47.567Z,101995.00
2018-11-03T02:18:16.614Z,102002.00
2018-11-03T02:20:45.729Z,101999.00
2018-11-03T02:27:46.647Z,102003.00
2018-11-03T02:30:24.236Z,102004.00
2018-11-03T02:35:48.034Z,101986.00
2018-11-03T02:38:17.088Z,101992.00
2018-11-03T02:41:05.263Z,101989.00
2018-11-03T02:46:40.701Z,101996.00
2018-11-03T02:49:09.887Z,101996.00
2018-11-03T02:52:02.488Z,101986.00
2018-11-03T02:54:31.642Z,101991.00
2018-11-03T02:57:00.801Z,101985.00
2018-11-03T02:59:29.923Z,101991.00
2018-11-03T03:01:59.133Z,101993.00
2018-11-03T03:04:28.097Z,101999.00
2018-11-03T03:07:58.123Z,101999.00
2018-11-03T03:14:06.172Z,102003.00
2018-11-03T03:16:35.412Z,102003.00
2018-11-03T03:19:04.818Z,102002.00
2018-11-03T03:21:46.640Z,102011.00
2018-11-03T03:38:15.235Z,102014.00
2018-11-03T03:41:07.648Z,102014.00
2018-11-03T03:43:37.056Z,102023.00
2018-11-03T03:46:06.246Z,102027.00
2018-11-03T03:49:02.214Z,102024.00
2018-11-03T03:51:37.613Z,102028.00
2018-11-03T03:54:06.880Z,102033.00
2018-11-03T03:56:35.982Z,102025.00
2018-11-03T03:59:05.560Z,102033.00
2018-11-03T04:01:34.822Z,102034.00
2018-11-03T04:04:03.948Z,102028.00
2018-11-03T04:06:33.448Z,102032.00
2018-11-03T04:09:03.858Z,102032.00
2018-11-03T04:11:33.880Z,102032.00
2018-11-03T04:17:24.660Z,102034.00
2018-11-03T04:19:53.826Z,102030.00
2018-11-03T04:22:22.852Z,102033.00
2018-11-03T04:25:20.121Z,102031.00
2018-11-03T04:27:58.559Z,102040.00
2018-11-03T04:30:49.868Z,102035.00
2018-11-03T04:33:24.774Z,102031.00
2018-11-03T04:35:54.011Z,102026.00
2018-11-03T04:38:24.774Z,102029.00
2018-11-03T04:40:54.032Z,102022.00
2018-11-03T04:43:23.163Z,102029.00
2018-11-03T04:45:54.375Z,102033.00
2018-11-03T04:48:23.445Z,102035.00
2018-11-03T04:50:52.563Z,102034.00
2018-11-03T04:53:21.733Z,102033.00
2018-11-03T04:55:51.876Z,102043.00
2018-11-03T04:58:21.052Z,102050.00
2018-11-03T05:00:51.319Z,102050.00
2018-11-03T05:03:20.501Z,102043.00
2018-11-03T05:05:49.657Z,102045.00
2018-11-03T05:08:25.407Z,102051.00
2018-11-03T05:10:54.485Z,102054.00
2018-11-03T05:13:23.621Z,102049.00
2018-11-03T05:15:52.927Z,102045.00
2018-11-03T05:18:22.733Z,102038.00
2018-11-03T05:20:51.846Z,102038.00
2018-11-03T05:23:22.912Z,102032.00
2018-11-03T05:25:52.973Z,102041.00
2018-11-03T05:28:22.077Z,102043.00
2018-11-03T05:30:52.050Z,102043.00
2018-11-03T05:33:21.555Z,102044.00
2018-11-03T05:35:50.742Z,102048.00
2018-11-03T05:38:20.318Z,102048.00
2018-11-03T05:40:49.360Z,102051.00
2018-11-03T05:43:18.496Z,102057.00
2018-11-03T05:45:48.007Z,102052.00
2018-11-03T05:48:20.881Z,102051.00
2018-11-03T05:50:50.114Z,102063.00
2018-11-03T05:53:22.045Z,102057.00
2018-11-03T05:55:58.297Z,102052.00
2018-11-03T05:58:27.596Z,102058.00
2018-11-03T06:00:57.347Z,102045.00
2018-11-03T06:03:26.473Z,102043.00
2018-11-03T06:05:56.573Z,102050.00
2018-11-03T06:08:30.940Z,102056.00
2018-11-03T06:11:00.179Z,102065.00
2018-11-03T06:13:29.712Z,102063.00
2018-11-03T06:15:59.467Z,102059.00
2018-11-03T06:18:28.520Z,102069.00
2018-11-03T06:20:57.651Z,102070.00
2018-11-03T06:23:26.867Z,102070.00
2018-11-03T06:25:55.856Z,102073.00
2018-11-03T06:28:24.937Z,102074.00
2018-11-03T06:30:54.110Z,102079.00
2018-11-03T06:33:23.191Z,102073.00
2018-11-03T06:35:52.268Z,102079.00
2018-11-03T06:38:21.981Z,102086.00
2018-11-03T06:40:51.217Z,102093.00
2018-11-03T06:43:20.327Z,102099.00
2018-11-03T06:45:49.448Z,102091.00
2018-11-03T06:48:18.526Z,102098.00
2018-11-03T06:50:47.617Z,102109.00
2018-11-03T06:53:16.942Z,102108.00
2018-11-03T06:55:46.281Z,102115.00
2018-11-03T06:58:19.703Z,102125.00
2018-11-03T07:01:04.793Z,102136.00
2018-11-03T07:03:37.703Z,102129.00
2018-11-03T07:06:06.999Z,102129.00
2018-11-03T07:08:36.098Z,102135.00
2018-11-03T07:11:05.597Z,102128.00
2018-11-03T07:13:34.702Z,102127.00
2018-11-03T07:16:03.928Z,102126.00
2018-11-03T07:18:33.046Z,102129.00
2018-11-03T07:21:02.086Z,102120.00
2018-11-03T07:23:31.206Z,102133.00
2018-11-03T07:26:00.272Z,102127.00
2018-11-03T07:28:30.413Z,102136.00
2018-11-03T07:31:08.583Z,102133.00
2018-11-03T07:33:38.716Z,102136.00
2018-11-03T07:36:08.699Z,102147.00
2018-11-03T07:38:37.838Z,102145.00
2018-11-03T07:41:07.093Z,102147.00
2018-11-03T07:43:36.322Z,102144.00
2018-11-03T07:46:12.551Z,102157.00
2018-11-03T07:48:42.413Z,102152.00
2018-11-03T07:51:11.615Z,102155.00
2018-11-03T07:53:41.291Z,102161.00
2018-11-03T07:56:17.039Z,102155.00
2018-11-03T07:58:47.823Z,102149.00
2018-11-03T08:01:18.307Z,102139.00
2018-11-03T08:03:47.473Z,102144.00
2018-11-03T08:07:05.300Z,102144.00
2018-11-03T08:09:48.621Z,102143.00
2018-11-03T08:12:18.632Z,102144.00
2018-11-03T08:14:47.705Z,102141.00
2018-11-03T08:17:50.701Z,102140.00
2018-11-03T08:20:20.139Z,102138.00
2018-11-03T08:22:49.340Z,102138.00
2018-11-03T08:25:18.668Z,102140.00
2018-11-03T08:27:47.768Z,102141.00
2018-11-03T08:30:16.906Z,102144.00
2018-11-03T08:32:57.297Z,102147.00
2018-11-03T08:36:51.662Z,102145.00
2018-11-03T08:39:20.899Z,102143.00
2018-11-03T08:41:50.013Z,102138.00
2018-11-03T08:44:23.294Z,102145.00
2018-11-03T08:46:55.689Z,102151.00
2018-11-03T08:49:25.917Z,102150.00
2018-11-03T08:51:55.276Z,102148.00
2018-11-03T08:57:28.585Z,102148.00
2018-11-03T08:59:58.082Z,102143.00
2018-11-03T09:02:27.424Z,102147.00
2018-11-03T09:04:56.870Z,102157.00
2018-11-03T09:07:26.832Z,102144.00
2018-11-03T09:15:56.793Z,102162.00
2018-11-03T09:18:26.082Z,102152.00
2018-11-03T09:20:55.336Z,102157.00
2018-11-03T09:23:24.442Z,102151.00
2018-11-03T09:25:54.018Z,102143.00
2018-11-03T09:28:23.047Z,102152.00
2018-11-03T09:30:52.150Z,102166.00
2018-11-03T09:33:52.938Z,102173.00
2018-11-03T09:39:33.468Z,102161.00
2018-11-03T09:42:02.640Z,102154.00
2018-11-03T09:44:32.104Z,102153.00
2018-11-03T09:47:01.287Z,102165.00
2018-11-03T09:50:04.344Z,102165.00
2018-11-03T09:53:39.158Z,102161.00
2018-11-03T09:56:09.382Z,102152.00
2018-11-03T09:58:39.683Z,102152.00
2018-11-03T10:02:04.395Z,102155.00
2018-11-03T10:04:33.630Z,102157.00
2018-11-03T10:07:02.778Z,102156.00
2018-11-03T10:09:32.065Z,102157.00
2018-11-03T10:12:01.313Z,102155.00
2018-11-03T10:14:31.024Z,102146.00
2018-11-03T10:17:00.277Z,102147.00
2018-11-03T10:19:29.573Z,102149.00
2018-11-03T10:21:58.846Z,102154.00
2018-11-03T10:27:30.753Z,102146.00
2018-11-03T10:30:00.947Z,102137.00
2018-11-03T10:32:30.187Z,102137.00
2018-11-03T10:35:00.293Z,102136.00
2018-11-03T10:37:29.345Z,102135.00
2018-11-03T10:39:58.574Z,102133.00
2018-11-03T10:42:48.875Z,102126.00
2018-11-03T10:45:18.304Z,102125.00
2018-11-03T10:47:47.574Z,102118.00
2018-11-03T10:51:17.546Z,102116.00
2018-11-03T10:54:16.167Z,102110.00
2018-11-03T11:02:50.800Z,102104.00
2018-11-03T11:05:25.378Z,102096.00
2018-11-03T11:07:59.881Z,102097.00
2018-11-03T11:10:52.162Z,102096.00
2018-11-03T11:13:24.749Z,102102.00
2018-11-03T11:18:57.090Z,102096.00
2018-11-03T11:21:26.213Z,102103.00
2018-11-03T11:27:22.199Z,102092.00
2018-11-03T11:29:51.777Z,102098.00
2018-11-03T11:32:22.081Z,102100.00
2018-11-03T11:34:51.267Z,102094.00
2018-11-03T11:37:20.602Z,102100.00
2018-11-03T11:40:29.757Z,102104.00
2018-11-03T11:48:39.185Z,102096.00
2018-11-03T11:51:31.547Z,102101.00
2018-11-03T11:54:00.711Z,102100.00
2018-11-03T11:56:32.250Z,102100.00
2018-11-03T11:59:01.456Z,102097.00
2018-11-03T12:01:59.957Z,102091.00
2018-11-03T12:04:29.279Z,102093.00
2018-11-03T12:06:58.552Z,102089.00
2018-11-03T12:09:56.397Z,102083.00
2018-11-03T12:15:24.798Z,102076.00
2018-11-03T12:17:53.932Z,102079.00
2018-11-03T12:20:23.074Z,102079.00
2018-11-03T12:23:34.972Z,102064.00
2018-11-03T12:29:26.336Z,102063.00
2018-11-03T12:35:01.237Z,102061.00
2018-11-03T12:37:30.914Z,102063.00
2018-11-03T12:40:00.142Z,102063.00
2018-11-03T12:42:29.336Z,102061.00
2018-11-03T12:44:58.504Z,102057.00
2018-11-03T12:47:30.644Z,102053.00
2018-11-03T12:53:18.338Z,102057.00
2018-11-03T12:56:51.294Z,102037.00
2018-11-03T13:04:17.345Z,102032.00
2018-11-03T13:06:46.688Z,102045.00
2018-11-03T14:25:43.058Z,102026.00
2018-11-03T14:28:19.396Z,102015.00
2018-11-03T14:30:49.359Z,102019.00
2018-11-03T14:33:21.372Z,102015.00
2018-11-03T14:35:50.853Z,102013.00
2018-11-03T14:41:21.429Z,102011.00
2018-11-03T14:43:51.191Z,102017.00
2018-11-03T14:46:20.573Z,102016.00
2018-11-03T14:48:49.693Z,102011.00
2018-11-03T14:51:18.758Z,102007.00
2018-11-03T14:53:53.145Z,102005.00
2018-11-03T14:56:54.123Z,102007.00
2018-11-03T14:59:23.244Z,102000.00
2018-11-03T15:01:52.573Z,102000.00
2018-11-03T15:04:53.886Z,102006.00
2018-11-03T15:07:31.378Z,102003.00
2018-11-03T15:10:24.900Z,101990.00
2018-11-03T15:12:57.579Z,102003.00
2018-11-03T15:15:57.483Z,101989.00
2018-11-03T15:19:07.722Z,101994.00
2018-11-03T15:21:57.340Z,101998.00
2018-11-03T15:24:57.205Z,101985.00
2018-11-03T15:31:17.677Z,101980.00
2018-11-03T15:33:59.571Z,101973.00
2018-11-03T15:36:57.816Z,101978.00
2018-11-03T15:41:33.584Z,101977.00
2018-11-03T15:44:02.987Z,101978.00
2018-11-03T15:46:32.291Z,101978.00
2018-11-03T15:49:02.585Z,101976.00
2018-11-03T15:51:31.961Z,101974.00
2018-11-03T15:57:33.681Z,101961.00
2018-11-03T16:00:07.347Z,101955.00
2018-11-03T16:02:37.117Z,101964.00
2018-11-03T16:05:06.849Z,101963.00
2018-11-03T16:07:35.993Z,101959.00
2018-11-03T16:12:54.727Z,101974.00
2018-11-03T16:15:23.996Z,101957.00
2018-11-03T16:17:53.222Z,101962.00
2018-11-03T16:20:23.255Z,101961.00
2018-11-03T16:22:52.580Z,101966.00
2018-11-03T16:25:21.873Z,101952.00
2018-11-03T16:27:51.071Z,101952.00
2018-11-03T16:30:38.717Z,101955.00
2018-11-03T16:33:08.318Z,101953.00
2018-11-03T16:35:39.232Z,101951.00
2018-11-03T16:41:02.743Z,101954.00
2018-11-03T16:43:32.079Z,101953.00
2018-11-03T16:47:42.813Z,101957.00
2018-11-03T16:50:13.736Z,101949.00
2018-11-03T16:52:43.218Z,101948.00
2018-11-03T16:58:17.495Z,101947.00
2018-11-03T17:04:42.690Z,101952.00
2018-11-03T17:07:12.006Z,101952.00
2018-11-03T17:09:41.311Z,101951.00
2018-11-03T17:12:10.437Z,101955.00
2018-11-03T17:14:47.269Z,101948.00
2018-11-03T17:17:31.051Z,101951.00
2018-11-03T17:23:15.940Z,101945.00
2018-11-03T17:25:47.558Z,101960.00
2018-11-03T17:31:11.242Z,101952.00
2018-11-03T17:33:40.367Z,101950.00
2018-11-03T17:36:10.183Z,101944.00
2018-11-03T17:39:59.057Z,101944.00
2018-11-03T17:42:28.870Z,101943.00
2018-11-03T17:44:58.115Z,101948.00
2018-11-03T17:47:27.355Z,101947.00
2018-11-03T17:49:56.580Z,101944.00
2018-11-03T17:52:27.357Z,101948.00
2018-11-03T17:54:56.628Z,101945.00
2018-11-03T17:57:26.090Z,101935.00
2018-11-03T17:59:55.419Z,101934.00
2018-11-03T18:02:24.736Z,101932.00
2018-11-03T18:04:54.148Z,101931.00
2018-11-03T18:07:25.285Z,101936.00
2018-11-03T18:13:08.329Z,101939.00
2018-11-03T18:15:37.348Z,101938.00
2018-11-03T18:18:08.074Z,101939.00
2018-11-03T18:21:59.712Z,101934.00
2018-11-03T18:24:30.158Z,101943.00
2018-11-03T18:27:01.873Z,101942.00
2018-11-03T18:29:31.169Z,101958.00
2018-11-03T18:32:08.157Z,101940.00
2018-11-03T18:34:37.488Z,101949.00
2018-11-03T18:37:29.217Z,101934.00
2018-11-03T18:40:00.357Z,101940.00
2018-11-03T18:43:00.467Z,101939.00
2018-11-03T18:48:46.324Z,101933.00
2018-11-03T18:51:42.784Z,101929.00
2018-11-03T18:54:33.400Z,101930.00
2018-11-03T18:57:33.758Z,101929.00
2018-11-03T19:00:03.270Z,101917.00
2018-11-03T19:02:32.567Z,101920.00
2018-11-03T19:08:13.661Z,101934.00
2018-11-03T19:10:42.977Z,101934.00
2018-11-03T19:13:12.228Z,101939.00
2018-11-03T19:15:41.414Z,101941.00
2018-11-03T19:42:10.976Z,101929.00
2018-11-03T19:47:44.012Z,101924.00
2018-11-03T19:50:16.624Z,101936.00
2018-11-03T19:52:46.228Z,101932.00
2018-11-03T19:55:40.401Z,101920.00
2018-11-03T19:58:11.145Z,101918.00
2018-11-03T20:00:40.577Z,101915.00
2018-11-03T20:06:30.359Z,101922.00
2018-11-03T20:09:10.359Z,101924.00
2018-11-03T20:21:23.418Z,101918.00
2018-11-03T20:24:05.750Z,101905.00
2018-11-03T20:29:20.652Z,101911.00
2018-11-03T20:31:49.905Z,101912.00
2018-11-03T20:34:19.183Z,101918.00
2018-11-03T20:36:48.460Z,101904.00
2018-11-03T20:39:18.750Z,101908.00
2018-11-03T20:43:52.167Z,101902.00
2018-11-03T20:46:21.421Z,101897.00
2018-11-03T20:48:50.767Z,101895.00
2018-11-03T20:51:24.000Z,101894.00
2018-11-03T20:57:06.899Z,101885.00
2018-11-03T20:59:54.359Z,101892.00
2018-11-03T21:02:23.936Z,101881.00
2018-11-03T21:04:53.290Z,101880.00
2018-11-03T21:07:22.531Z,101876.00
2018-11-03T21:13:05.359Z,101870.00
2018-11-03T21:15:35.168Z,101873.00
2018-11-03T21:19:24.689Z,101874.00
2018-11-03T21:22:23.309Z,101870.00
2018-11-03T21:28:36.149Z,101864.00
2018-11-03T21:31:05.884Z,101851.00
2018-11-03T21:33:35.227Z,101858.00
2018-11-03T21:36:04.555Z,101862.00
2018-11-03T21:38:34.014Z,101857.00
2018-11-03T21:41:03.310Z,101848.00
2018-11-03T21:43:57.592Z,101853.00
2018-11-03T21:52:38.156Z,101839.00
2018-11-03T21:55:08.091Z,101837.00
2018-11-03T22:01:32.216Z,101818.00
2018-11-03T22:04:02.483Z,101817.00
2018-11-03T22:06:32.193Z,101817.00
2018-11-03T22:09:02.080Z,101824.00
2018-11-03T22:11:34.819Z,101818.00
2018-11-03T22:14:04.138Z,101815.00
2018-11-03T22:16:33.466Z,101807.00
2018-11-03T22:22:27.684Z,101797.00
2018-11-03T22:24:56.833Z,101801.00
2018-11-03T22:27:25.999Z,101794.00
2018-11-03T22:29:55.972Z,101793.00
2018-11-03T22:32:25.166Z,101788.00
2018-11-03T22:34:54.306Z,101786.00
2018-11-03T22:37:23.466Z,101787.00
2018-11-03T22:40:08.312Z,101782.00
2018-11-03T22:43:08.563Z,101779.00
2018-11-03T22:45:39.021Z,101771.00
2018-11-03T22:48:08.508Z,101768.00
2018-11-03T22:50:37.833Z,101765.00
2018-11-03T22:53:07.820Z,101757.00
2018-11-03T22:56:12.316Z,101760.00
2018-11-03T22:58:41.576Z,101754.00
2018-11-03T23:01:10.977Z,101753.00
2018-11-03T23:03:40.326Z,101749.00
2018-11-03T23:06:09.621Z,101743.00
2018-11-03T23:08:41.226Z,101753.00
2018-11-03T23:11:10.482Z,101742.00
2018-11-03T23:13:43.524Z,101737.00
2018-11-03T23:16:12.726Z,101729.00
2018-11-03T23:21:42.762Z,101732.00
2018-11-03T23:24:11.934Z,101731.00
2018-11-03T23:27:17.934Z,101735.00
2018-11-03T23:29:47.107Z,101733.00
2018-11-03T23:32:16.355Z,101728.00
2018-11-03T23:35:39.090Z,101723.00
2018-11-03T23:38:08.239Z,101731.00
2018-11-03T23:40:37.413Z,101720.00
2018-11-03T23:43:21.322Z,101732.00
2018-11-03T23:45:50.580Z,101761.00
2018-11-03T23:48:20.704Z,101710.00
2018-11-03T23:50:49.796Z,101707.00
